sensor_id;sensor_type;location;lat;lon;timestamp;pressure;altitude;pressure_sealevel;temperature;humidity
6032;BME280;3044;43.232;27.972;2023-05-21T00:00:52;45054.78;;;-143.84;50.88
6032;BME280;3044;43.232;27.972;2023-05-21T00:03:20;45058.59;;;-143.84;50.85
6032;BME280;3044;43.232;27.972;2023-05-21T00:05:51;45073.81;;;-143.84;51.08
6032;BME280;3044;43.232;27.972;2023-05-21T00:08:19;45037.66;;;-143.84;51.27
6032;BME280;3044;43.232;27.972;2023-05-21T00:10:46;45085.25;;;-143.84;51.10
6032;BME280;3044;43.232;27.972;2023-05-21T00:13:14;45047.16;;;-143.84;51.08
6032;BME280;3044;43.232;27.972;2023-05-21T00:15:42;45052.88;;;-143.84;51.17
6032;BME280;3044;43.232;27.972;2023-05-21T00:18:09;45052.88;;;-143.84;50.94
6032;BME280;3044;43.232;27.972;2023-05-21T00:20:36;45079.53;;;-143.84;50.90
6032;BME280;3044;43.232;27.972;2023-05-21T00:23:03;45064.31;;;-143.84;51.03
6032;BME280;3044;43.232;27.972;2023-05-21T00:25:30;45062.41;;;-143.84;51.13
6032;BME280;3044;43.232;27.972;2023-05-21T00:27:57;45090.97;;;-143.84;51.02
6032;BME280;3044;43.232;27.972;2023-05-21T00:30:26;45070.00;;;-143.84;50.98
6032;BME280;3044;43.232;27.972;2023-05-21T00:32:53;45066.22;;;-143.84;51.06
6032;BME280;3044;43.232;27.972;2023-05-21T00:35:23;45060.50;;;-143.84;51.26
6032;BME280;3044;43.232;27.972;2023-05-21T00:37:50;45077.63;;;-143.84;51.22
6032;BME280;3044;43.232;27.972;2023-05-21T00:40:18;45056.69;;;-143.84;51.49
6032;BME280;3044;43.232;27.972;2023-05-21T00:42:45;45064.31;;;-143.84;51.60
6032;BME280;3044;43.232;27.972;2023-05-21T00:45:12;45117.63;;;-143.84;51.84
6032;BME280;3044;43.232;27.972;2023-05-21T00:47:42;45071.91;;;-143.84;51.96
6032;BME280;3044;43.232;27.972;2023-05-21T00:50:10;45085.25;;;-143.84;51.87
6032;BME280;3044;43.232;27.972;2023-05-21T00:52:39;45070.00;;;-143.84;52.25
6032;BME280;3044;43.232;27.972;2023-05-21T00:55:08;45071.91;;;-143.84;52.53
6032;BME280;3044;43.232;27.972;2023-05-21T00:57:35;45058.59;;;-143.84;52.72
6032;BME280;3044;43.232;27.972;2023-05-21T01:00:04;45085.25;;;-143.84;52.71
6032;BME280;3044;43.232;27.972;2023-05-21T01:02:34;45047.16;;;-143.84;52.93
6032;BME280;3044;43.232;27.972;2023-05-21T01:05:03;45068.13;;;-143.84;53.08
6032;BME280;3044;43.232;27.972;2023-05-21T01:07:32;45064.31;;;-143.84;53.18
6032;BME280;3044;43.232;27.972;2023-05-21T01:10:01;45071.91;;;-143.84;53.67
6032;BME280;3044;43.232;27.972;2023-05-21T01:12:31;45068.13;;;-143.84;53.95
6032;BME280;3044;43.232;27.972;2023-05-21T01:14:59;45070.00;;;-143.84;53.89
6032;BME280;3044;43.232;27.972;2023-05-21T01:17:27;45085.25;;;-143.84;53.69
6032;BME280;3044;43.232;27.972;2023-05-21T01:19:56;45089.06;;;-143.84;53.98
6032;BME280;3044;43.232;27.972;2023-05-21T01:22:27;45064.31;;;-143.84;54.45
6032;BME280;3044;43.232;27.972;2023-05-21T01:24:58;45075.72;;;-143.84;54.29
6032;BME280;3044;43.232;27.972;2023-05-21T01:27:27;45071.91;;;-143.84;54.58
6032;BME280;3044;43.232;27.972;2023-05-21T01:29:54;45071.91;;;-143.84;54.66
6032;BME280;3044;43.232;27.972;2023-05-21T01:32:26;45071.91;;;-143.84;54.70
6032;BME280;3044;43.232;27.972;2023-05-21T01:35:01;45073.81;;;-143.84;54.55
6032;BME280;3044;43.232;27.972;2023-05-21T01:37:33;45079.53;;;-143.84;54.57
6032;BME280;3044;43.232;27.972;2023-05-21T01:40:08;45096.66;;;-143.84;54.54
6032;BME280;3044;43.232;27.972;2023-05-21T01:42:38;45075.72;;;-143.84;54.60
6032;BME280;3044;43.232;27.972;2023-05-21T01:45:09;45081.44;;;-143.84;54.69
6032;BME280;3044;43.232;27.972;2023-05-21T01:47:38;45068.13;;;-143.84;54.99
6032;BME280;3044;43.232;27.972;2023-05-21T01:50:08;45052.88;;;-143.84;55.19
6032;BME280;3044;43.232;27.972;2023-05-21T01:52:35;45079.53;;;-143.84;55.14
6032;BME280;3044;43.232;27.972;2023-05-21T01:55:05;45066.22;;;-143.84;55.17
6032;BME280;3044;43.232;27.972;2023-05-21T01:57:32;45052.88;;;-143.84;54.84
6032;BME280;3044;43.232;27.972;2023-05-21T01:59:59;45064.31;;;-143.84;55.06
6032;BME280;3044;43.232;27.972;2023-05-21T02:02:26;45075.72;;;-143.84;55.33
6032;BME280;3044;43.232;27.972;2023-05-21T02:04:54;45075.72;;;-143.84;55.31
6032;BME280;3044;43.232;27.972;2023-05-21T02:07:21;45073.81;;;-143.84;55.56
6032;BME280;3044;43.232;27.972;2023-05-21T02:09:49;45071.91;;;-143.84;55.78
6032;BME280;3044;43.232;27.972;2023-05-21T02:12:17;45087.16;;;-143.84;55.40
6032;BME280;3044;43.232;27.972;2023-05-21T02:14:44;45087.16;;;-143.84;55.41
6032;BME280;3044;43.232;27.972;2023-05-21T02:17:14;45092.88;;;-143.84;55.54
6032;BME280;3044;43.232;27.972;2023-05-21T02:19:43;45081.44;;;-143.84;55.25
6032;BME280;3044;43.232;27.972;2023-05-21T02:22:10;45077.63;;;-143.84;54.86
6032;BME280;3044;43.232;27.972;2023-05-21T02:24:37;45092.88;;;-143.84;54.97
6032;BME280;3044;43.232;27.972;2023-05-21T02:27:05;45064.31;;;-143.84;54.72
6032;BME280;3044;43.232;27.972;2023-05-21T02:29:33;45079.53;;;-143.84;54.97
6032;BME280;3044;43.232;27.972;2023-05-21T02:32:00;45052.88;;;-143.84;54.97
6032;BME280;3044;43.232;27.972;2023-05-21T02:34:27;45075.72;;;-143.84;54.97
6032;BME280;3044;43.232;27.972;2023-05-21T02:36:56;45089.06;;;-143.84;55.32
6032;BME280;3044;43.232;27.972;2023-05-21T02:39:24;45083.34;;;-143.84;55.66
6032;BME280;3044;43.232;27.972;2023-05-21T02:41:51;45094.78;;;-143.84;55.74
6032;BME280;3044;43.232;27.972;2023-05-21T02:44:18;45079.53;;;-143.84;55.47
6032;BME280;3044;43.232;27.972;2023-05-21T02:46:49;45081.44;;;-143.84;55.57
6032;BME280;3044;43.232;27.972;2023-05-21T02:49:17;45102.38;;;-143.84;55.92
6032;BME280;3044;43.232;27.972;2023-05-21T02:51:44;45071.91;;;-143.84;55.66
6032;BME280;3044;43.232;27.972;2023-05-21T02:54:11;45081.44;;;-143.84;56.09
6032;BME280;3044;43.232;27.972;2023-05-21T02:56:38;45089.06;;;-143.84;55.95
6032;BME280;3044;43.232;27.972;2023-05-21T02:59:05;45083.34;;;-143.84;56.20
6032;BME280;3044;43.232;27.972;2023-05-21T03:01:32;45068.13;;;-143.84;56.29
6032;BME280;3044;43.232;27.972;2023-05-21T03:04:01;45075.72;;;-143.84;56.32
6032;BME280;3044;43.232;27.972;2023-05-21T03:06:28;45077.63;;;-143.84;56.28
6032;BME280;3044;43.232;27.972;2023-05-21T03:08:56;45083.34;;;-143.84;56.27
6032;BME280;3044;43.232;27.972;2023-05-21T03:11:23;45075.72;;;-143.84;55.97
6032;BME280;3044;43.232;27.972;2023-05-21T03:13:50;45090.97;;;-143.84;55.49
6032;BME280;3044;43.232;27.972;2023-05-21T03:16:17;45056.69;;;-143.84;55.31
6032;BME280;3044;43.232;27.972;2023-05-21T03:18:44;45054.78;;;-143.84;55.18
6032;BME280;3044;43.232;27.972;2023-05-21T03:21:13;45052.88;;;-143.84;54.87
6032;BME280;3044;43.232;27.972;2023-05-21T03:23:40;45077.63;;;-143.84;54.41
6032;BME280;3044;43.232;27.972;2023-05-21T03:26:07;45070.00;;;-143.84;54.06
6032;BME280;3044;43.232;27.972;2023-05-21T03:28:34;45079.53;;;-143.84;53.75
6032;BME280;3044;43.232;27.972;2023-05-21T03:31:02;45083.34;;;-143.84;52.15
6032;BME280;3044;43.232;27.972;2023-05-21T03:33:29;45026.22;;;-143.84;51.13
6032;BME280;3044;43.232;27.972;2023-05-21T03:35:56;45077.63;;;-143.84;49.59
6032;BME280;3044;43.232;27.972;2023-05-21T03:38:24;45043.34;;;-143.84;48.83
6032;BME280;3044;43.232;27.972;2023-05-21T03:40:52;45018.59;;;-143.84;47.79
6032;BME280;3044;43.232;27.972;2023-05-21T03:43:19;45062.41;;;-143.84;46.80
6032;BME280;3044;43.232;27.972;2023-05-21T03:45:46;45033.84;;;-143.84;46.03
6032;BME280;3044;43.232;27.972;2023-05-21T03:48:13;45045.25;;;-143.84;44.96
6032;BME280;3044;43.232;27.972;2023-05-21T03:50:40;45018.59;;;-143.84;44.37
6032;BME280;3044;43.232;27.972;2023-05-21T03:53:08;45043.34;;;-143.84;43.55
6032;BME280;3044;43.232;27.972;2023-05-21T03:55:36;45035.75;;;-143.84;43.08
6032;BME280;3044;43.232;27.972;2023-05-21T03:58:03;45052.88;;;-143.84;43.33
6032;BME280;3044;43.232;27.972;2023-05-21T04:00:31;45022.41;;;-143.84;43.09
6032;BME280;3044;43.232;27.972;2023-05-21T04:02:59;45035.75;;;-143.84;42.41
6032;BME280;3044;43.232;27.972;2023-05-21T04:05:26;45026.22;;;-143.84;41.88
6032;BME280;3044;43.232;27.972;2023-05-21T04:07:53;45024.31;;;-143.84;41.60
6032;BME280;3044;43.232;27.972;2023-05-21T04:10:20;45039.53;;;-143.84;40.88
6032;BME280;3044;43.232;27.972;2023-05-21T04:12:49;45047.16;;;-143.84;41.05
6032;BME280;3044;43.232;27.972;2023-05-21T04:15:17;45033.84;;;-143.84;41.82
6032;BME280;3044;43.232;27.972;2023-05-21T04:17:44;45037.66;;;-143.84;42.52
6032;BME280;3044;43.232;27.972;2023-05-21T04:20:12;45049.06;;;-143.84;42.40
6032;BME280;3044;43.232;27.972;2023-05-21T04:22:41;45062.41;;;-143.84;42.74
6032;BME280;3044;43.232;27.972;2023-05-21T04:25:08;45018.59;;;-143.84;42.34
6032;BME280;3044;43.232;27.972;2023-05-21T04:27:36;45070.00;;;-143.84;42.31
6032;BME280;3044;43.232;27.972;2023-05-21T04:30:06;45030.03;;;-143.84;41.71
6032;BME280;3044;43.232;27.972;2023-05-21T04:32:33;45024.31;;;-143.84;41.63
6032;BME280;3044;43.232;27.972;2023-05-21T04:35:00;45033.84;;;-143.84;41.33
6032;BME280;3044;43.232;27.972;2023-05-21T04:37:28;45031.94;;;-143.84;40.90
6032;BME280;3044;43.232;27.972;2023-05-21T04:40:00;45049.06;;;-143.84;40.23
6032;BME280;3044;43.232;27.972;2023-05-21T04:42:27;45022.41;;;-143.84;40.14
6032;BME280;3044;43.232;27.972;2023-05-21T04:44:55;45018.59;;;-143.84;39.63
6032;BME280;3044;43.232;27.972;2023-05-21T04:47:25;45022.41;;;-143.84;39.63
6032;BME280;3044;43.232;27.972;2023-05-21T04:49:54;45014.78;;;-143.84;38.25
6032;BME280;3044;43.232;27.972;2023-05-21T04:52:21;45033.84;;;-143.84;38.07
6032;BME280;3044;43.232;27.972;2023-05-21T04:54:49;45018.59;;;-143.84;37.94
6032;BME280;3044;43.232;27.972;2023-05-21T04:57:18;44991.94;;;-143.84;37.41
6032;BME280;3044;43.232;27.972;2023-05-21T04:59:46;45005.28;;;-143.84;37.82
6032;BME280;3044;43.232;27.972;2023-05-21T05:02:13;45003.38;;;-143.84;37.70
6032;BME280;3044;43.232;27.972;2023-05-21T05:04:42;45007.19;;;-143.84;37.58
6032;BME280;3044;43.232;27.972;2023-05-21T05:07:09;45007.19;;;-143.84;37.27
6032;BME280;3044;43.232;27.972;2023-05-21T05:09:36;45037.66;;;-143.84;36.81
6032;BME280;3044;43.232;27.972;2023-05-21T05:12:04;45007.19;;;-143.84;37.31
6032;BME280;3044;43.232;27.972;2023-05-21T05:14:31;45005.28;;;-143.84;37.40
6032;BME280;3044;43.232;27.972;2023-05-21T05:16:58;45030.03;;;-143.84;37.72
6032;BME280;3044;43.232;27.972;2023-05-21T05:19:26;45010.97;;;-143.84;37.85
6032;BME280;3044;43.232;27.972;2023-05-21T05:21:54;45020.50;;;-143.84;38.15
6032;BME280;3044;43.232;27.972;2023-05-21T05:24:22;45024.31;;;-143.84;38.12
6032;BME280;3044;43.232;27.972;2023-05-21T05:26:49;45003.38;;;-143.84;38.41
6032;BME280;3044;43.232;27.972;2023-05-21T05:29:16;45026.22;;;-143.84;38.10
6032;BME280;3044;43.232;27.972;2023-05-21T05:31:43;45022.41;;;-143.84;38.18
6032;BME280;3044;43.232;27.972;2023-05-21T05:34:10;45009.09;;;-143.84;37.81
6032;BME280;3044;43.232;27.972;2023-05-21T05:36:37;45010.97;;;-143.84;37.71
6032;BME280;3044;43.232;27.972;2023-05-21T05:39:06;45010.97;;;-143.84;37.67
6032;BME280;3044;43.232;27.972;2023-05-21T05:41:34;44991.94;;;-143.84;37.64
6032;BME280;3044;43.232;27.972;2023-05-21T05:44:01;44984.31;;;-143.84;37.91
6032;BME280;3044;43.232;27.972;2023-05-21T05:46:29;45030.03;;;-143.84;38.02
6032;BME280;3044;43.232;27.972;2023-05-21T05:48:57;45007.19;;;-143.84;37.49
6032;BME280;3044;43.232;27.972;2023-05-21T05:51:26;45018.59;;;-143.84;38.11
6032;BME280;3044;43.232;27.972;2023-05-21T05:53:53;44984.31;;;-143.84;37.63
6032;BME280;3044;43.232;27.972;2023-05-21T05:56:21;45003.38;;;-143.84;37.56
6032;BME280;3044;43.232;27.972;2023-05-21T05:58:48;45020.50;;;-143.84;37.72
6032;BME280;3044;43.232;27.972;2023-05-21T06:01:15;45010.97;;;-143.84;37.53
6032;BME280;3044;43.232;27.972;2023-05-21T06:03:43;45005.28;;;-143.84;37.74
6032;BME280;3044;43.232;27.972;2023-05-21T06:06:10;44991.94;;;-143.84;36.99
6032;BME280;3044;43.232;27.972;2023-05-21T06:08:37;45041.44;;;-143.84;36.57
6032;BME280;3044;43.232;27.972;2023-05-21T06:11:05;44993.84;;;-143.84;36.04
6032;BME280;3044;43.232;27.972;2023-05-21T06:13:33;44982.41;;;-143.84;35.82
6032;BME280;3044;43.232;27.972;2023-05-21T06:16:00;44971.00;;;-143.84;34.74
6032;BME280;3044;43.232;27.972;2023-05-21T06:18:27;44974.81;;;-143.84;34.74
6032;BME280;3044;43.232;27.972;2023-05-21T06:20:54;44990.03;;;-143.84;33.88
6032;BME280;3044;43.232;27.972;2023-05-21T06:23:22;44990.03;;;-143.84;33.99
6032;BME280;3044;43.232;27.972;2023-05-21T06:25:49;44957.66;;;-143.84;33.20
6032;BME280;3044;43.232;27.972;2023-05-21T06:28:16;44972.91;;;-143.84;32.80
6032;BME280;3044;43.232;27.972;2023-05-21T06:30:44;44953.88;;;-143.84;32.61
6032;BME280;3044;43.232;27.972;2023-05-21T06:33:12;44991.94;;;-143.84;33.03
6032;BME280;3044;43.232;27.972;2023-05-21T06:35:39;44990.03;;;-143.84;32.83
6032;BME280;3044;43.232;27.972;2023-05-21T06:38:06;44976.72;;;-143.84;33.00
6032;BME280;3044;43.232;27.972;2023-05-21T06:40:33;44961.47;;;-143.84;33.90
6032;BME280;3044;43.232;27.972;2023-05-21T06:43:00;45003.38;;;-143.84;33.24
6032;BME280;3044;43.232;27.972;2023-05-21T06:45:29;44963.38;;;-143.84;33.14
6032;BME280;3044;43.232;27.972;2023-05-21T06:47:57;44971.00;;;-143.84;34.14
6032;BME280;3044;43.232;27.972;2023-05-21T06:50:25;44984.31;;;-143.84;34.22
6032;BME280;3044;43.232;27.972;2023-05-21T06:52:52;44976.72;;;-143.84;34.22
6032;BME280;3044;43.232;27.972;2023-05-21T06:55:19;44974.81;;;-143.84;34.25
6032;BME280;3044;43.232;27.972;2023-05-21T06:57:46;44991.94;;;-143.84;33.82
6032;BME280;3044;43.232;27.972;2023-05-21T07:00:14;44980.53;;;-143.84;32.95
6032;BME280;3044;43.232;27.972;2023-05-21T07:02:41;44965.28;;;-143.84;33.29
6032;BME280;3044;43.232;27.972;2023-05-21T07:05:09;44961.47;;;-143.84;33.31
6032;BME280;3044;43.232;27.972;2023-05-21T07:07:36;44980.53;;;-143.84;33.88
6032;BME280;3044;43.232;27.972;2023-05-21T07:10:05;44940.53;;;-143.84;33.51
6032;BME280;3044;43.232;27.972;2023-05-21T07:12:33;44976.72;;;-143.84;33.25
6032;BME280;3044;43.232;27.972;2023-05-21T07:15:00;44950.06;;;-143.84;32.06
6032;BME280;3044;43.232;27.972;2023-05-21T07:17:27;44984.31;;;-143.84;32.61
6032;BME280;3044;43.232;27.972;2023-05-21T07:19:54;44971.00;;;-143.84;31.49
6032;BME280;3044;43.232;27.972;2023-05-21T07:22:22;44984.31;;;-143.84;31.66
6032;BME280;3044;43.232;27.972;2023-05-21T07:24:50;44944.34;;;-143.84;31.64
6032;BME280;3044;43.232;27.972;2023-05-21T07:27:17;44957.66;;;-143.84;31.90
6032;BME280;3044;43.232;27.972;2023-05-21T07:29:44;44957.66;;;-143.84;32.34
6032;BME280;3044;43.232;27.972;2023-05-21T07:32:11;44951.97;;;-143.84;32.01
6032;BME280;3044;43.232;27.972;2023-05-21T07:34:38;44965.28;;;-143.84;31.58
6032;BME280;3044;43.232;27.972;2023-05-21T07:37:05;44974.81;;;-143.84;32.48
6032;BME280;3044;43.232;27.972;2023-05-21T07:39:34;44955.75;;;-143.84;31.91
6032;BME280;3044;43.232;27.972;2023-05-21T07:42:02;44959.56;;;-143.84;32.93
6032;BME280;3044;43.232;27.972;2023-05-21T07:44:29;44938.63;;;-143.84;31.65
6032;BME280;3044;43.232;27.972;2023-05-21T07:46:57;44931.00;;;-143.84;31.38
6032;BME280;3044;43.232;27.972;2023-05-21T07:49:24;44942.44;;;-143.84;31.81
6032;BME280;3044;43.232;27.972;2023-05-21T07:51:51;44946.25;;;-143.84;31.36
6032;BME280;3044;43.232;27.972;2023-05-21T07:54:18;44951.97;;;-143.84;31.97
6032;BME280;3044;43.232;27.972;2023-05-21T07:56:46;44936.72;;;-143.84;32.17
6032;BME280;3044;43.232;27.972;2023-05-21T07:59:15;44951.97;;;-143.84;33.44
6032;BME280;3044;43.232;27.972;2023-05-21T08:01:42;44944.34;;;-143.84;32.46
6032;BME280;3044;43.232;27.972;2023-05-21T08:04:10;44931.00;;;-143.84;32.66
6032;BME280;3044;43.232;27.972;2023-05-21T08:06:37;44948.16;;;-143.84;32.98
6032;BME280;3044;43.232;27.972;2023-05-21T08:09:05;44931.00;;;-143.84;33.32
6032;BME280;3044;43.232;27.972;2023-05-21T08:11:33;44934.81;;;-143.84;32.72
6032;BME280;3044;43.232;27.972;2023-05-21T08:14:01;44919.59;;;-143.84;33.09
6032;BME280;3044;43.232;27.972;2023-05-21T08:16:28;44917.69;;;-143.84;33.05
6032;BME280;3044;43.232;27.972;2023-05-21T08:18:56;44957.66;;;-143.84;33.54
6032;BME280;3044;43.232;27.972;2023-05-21T08:21:23;44927.19;;;-143.84;33.61
6032;BME280;3044;43.232;27.972;2023-05-21T08:23:51;44921.50;;;-143.84;33.91
6032;BME280;3044;43.232;27.972;2023-05-21T08:26:18;44948.16;;;-143.84;34.47
6032;BME280;3044;43.232;27.972;2023-05-21T08:28:45;44969.09;;;-143.84;34.53
6032;BME280;3044;43.232;27.972;2023-05-21T08:31:17;44974.81;;;-143.84;34.53
6032;BME280;3044;43.232;27.972;2023-05-21T08:33:49;44965.28;;;-143.84;35.83
6032;BME280;3044;43.232;27.972;2023-05-21T08:36:16;44953.88;;;-143.84;35.03
6032;BME280;3044;43.232;27.972;2023-05-21T08:38:43;44953.88;;;-143.84;34.47
6032;BME280;3044;43.232;27.972;2023-05-21T08:41:12;44961.47;;;-143.84;35.41
6032;BME280;3044;43.232;27.972;2023-05-21T08:43:40;44957.66;;;-143.84;35.05
6032;BME280;3044;43.232;27.972;2023-05-21T08:46:08;44961.47;;;-143.84;35.17
6032;BME280;3044;43.232;27.972;2023-05-21T08:48:37;44961.47;;;-143.84;35.14
6032;BME280;3044;43.232;27.972;2023-05-21T08:51:04;44957.66;;;-143.84;35.14
6032;BME280;3044;43.232;27.972;2023-05-21T08:53:32;44921.50;;;-143.84;34.95
6032;BME280;3044;43.232;27.972;2023-05-21T08:56:00;44951.97;;;-143.84;34.87
6032;BME280;3044;43.232;27.972;2023-05-21T08:58:28;44911.97;;;-143.84;34.03
6032;BME280;3044;43.232;27.972;2023-05-21T09:00:58;44971.00;;;-143.84;34.10
6032;BME280;3044;43.232;27.972;2023-05-21T09:03:26;44944.34;;;-143.84;33.60
6032;BME280;3044;43.232;27.972;2023-05-21T09:05:58;44927.19;;;-143.84;33.91
6032;BME280;3044;43.232;27.972;2023-05-21T09:08:28;44931.00;;;-143.84;33.06
6032;BME280;3044;43.232;27.972;2023-05-21T09:10:56;44931.00;;;-143.84;32.76
6032;BME280;3044;43.232;27.972;2023-05-21T09:13:24;44944.34;;;-143.84;33.25
6032;BME280;3044;43.232;27.972;2023-05-21T09:15:53;44919.59;;;-143.84;32.97
6032;BME280;3044;43.232;27.972;2023-05-21T09:18:20;44940.53;;;-143.84;33.29
6032;BME280;3044;43.232;27.972;2023-05-21T09:20:47;44936.72;;;-143.84;33.77
6032;BME280;3044;43.232;27.972;2023-05-21T09:23:18;44940.53;;;-143.84;34.09
6032;BME280;3044;43.232;27.972;2023-05-21T09:25:46;44942.44;;;-143.84;34.34
6032;BME280;3044;43.232;27.972;2023-05-21T09:28:14;44972.91;;;-143.84;34.73
6032;BME280;3044;43.232;27.972;2023-05-21T09:30:45;44961.47;;;-143.84;34.48
6032;BME280;3044;43.232;27.972;2023-05-21T09:33:23;44976.72;;;-143.84;35.19
6032;BME280;3044;43.232;27.972;2023-05-21T09:35:50;44955.75;;;-143.84;35.63
6032;BME280;3044;43.232;27.972;2023-05-21T09:38:21;44942.44;;;-143.84;35.52
6032;BME280;3044;43.232;27.972;2023-05-21T09:40:48;44971.00;;;-143.84;35.11
6032;BME280;3044;43.232;27.972;2023-05-21T09:43:15;44957.66;;;-143.84;36.01
6032;BME280;3044;43.232;27.972;2023-05-21T09:45:52;44974.81;;;-143.84;36.27
6032;BME280;3044;43.232;27.972;2023-05-21T09:48:35;44974.81;;;-143.84;35.90
6032;BME280;3044;43.232;27.972;2023-05-21T09:51:09;44961.47;;;-143.84;36.11
6032;BME280;3044;43.232;27.972;2023-05-21T09:53:44;44953.88;;;-143.84;36.02
6032;BME280;3044;43.232;27.972;2023-05-21T09:56:14;44965.28;;;-143.84;35.92
6032;BME280;3044;43.232;27.972;2023-05-21T09:58:42;44919.59;;;-143.84;36.29
6032;BME280;3044;43.232;27.972;2023-05-21T10:01:10;44980.53;;;-143.84;35.76
6032;BME280;3044;43.232;27.972;2023-05-21T10:03:38;44969.09;;;-143.84;35.11
6032;BME280;3044;43.232;27.972;2023-05-21T10:06:07;44961.47;;;-143.84;35.28
6032;BME280;3044;43.232;27.972;2023-05-21T10:08:35;44963.38;;;-143.84;35.76
6032;BME280;3044;43.232;27.972;2023-05-21T10:11:08;44959.56;;;-143.84;35.29
6032;BME280;3044;43.232;27.972;2023-05-21T10:13:40;44986.22;;;-143.84;35.81
6032;BME280;3044;43.232;27.972;2023-05-21T10:16:09;44959.56;;;-143.84;35.57
6032;BME280;3044;43.232;27.972;2023-05-21T10:18:38;44976.72;;;-143.84;35.59
6032;BME280;3044;43.232;27.972;2023-05-21T10:21:07;44972.91;;;-143.84;35.62
6032;BME280;3044;43.232;27.972;2023-05-21T10:23:35;44969.09;;;-143.84;35.29
6032;BME280;3044;43.232;27.972;2023-05-21T10:26:03;44971.00;;;-143.84;35.56
6032;BME280;3044;43.232;27.972;2023-05-21T10:28:33;44969.09;;;-143.84;35.09
6032;BME280;3044;43.232;27.972;2023-05-21T10:31:00;44990.03;;;-143.84;35.19
6032;BME280;3044;43.232;27.972;2023-05-21T10:33:28;44944.34;;;-143.84;35.72
6032;BME280;3044;43.232;27.972;2023-05-21T10:35:57;44953.88;;;-143.84;35.22
6032;BME280;3044;43.232;27.972;2023-05-21T10:38:25;44955.75;;;-143.84;35.93
6032;BME280;3044;43.232;27.972;2023-05-21T10:40:53;44963.38;;;-143.84;36.35
6032;BME280;3044;43.232;27.972;2023-05-21T10:43:44;44942.44;;;-143.84;36.50
6032;BME280;3044;43.232;27.972;2023-05-21T10:49:37;44946.25;;;-143.84;35.56
6032;BME280;3044;43.232;27.972;2023-05-21T10:52:22;44959.56;;;-143.84;34.46
6032;BME280;3044;43.232;27.972;2023-05-21T10:54:57;44934.81;;;-143.84;34.35
6032;BME280;3044;43.232;27.972;2023-05-21T10:57:49;44953.88;;;-143.84;34.22
6032;BME280;3044;43.232;27.972;2023-05-21T11:00:23;44917.69;;;-143.84;33.53
6032;BME280;3044;43.232;27.972;2023-05-21T11:02:51;44934.81;;;-143.84;34.71
6032;BME280;3044;43.232;27.972;2023-05-21T11:05:39;44927.19;;;-143.84;35.55
6032;BME280;3044;43.232;27.972;2023-05-21T11:08:20;44950.06;;;-143.84;34.22
6032;BME280;3044;43.232;27.972;2023-05-21T11:10:51;44932.91;;;-143.84;34.42
6032;BME280;3044;43.232;27.972;2023-05-21T11:13:18;44913.88;;;-143.84;33.80
6032;BME280;3044;43.232;27.972;2023-05-21T11:16:06;44911.97;;;-143.84;35.02
6032;BME280;3044;43.232;27.972;2023-05-21T11:18:58;44942.44;;;-143.84;34.25
6032;BME280;3044;43.232;27.972;2023-05-21T11:21:29;44955.75;;;-143.84;33.18
6032;BME280;3044;43.232;27.972;2023-05-21T11:24:03;44911.97;;;-143.84;33.54
6032;BME280;3044;43.232;27.972;2023-05-21T11:27:00;44925.31;;;-143.84;33.41
6032;BME280;3044;43.232;27.972;2023-05-21T11:29:36;44917.69;;;-143.84;32.72
6032;BME280;3044;43.232;27.972;2023-05-21T11:32:07;44959.56;;;-143.84;31.89
6032;BME280;3044;43.232;27.972;2023-05-21T11:34:44;44957.66;;;-143.84;31.52
6032;BME280;3044;43.232;27.972;2023-05-21T11:37:31;44927.19;;;-143.84;31.68
6032;BME280;3044;43.232;27.972;2023-05-21T11:40:21;44974.81;;;-143.84;31.95
6032;BME280;3044;43.232;27.972;2023-05-21T11:42:51;44919.59;;;-143.84;32.03
6032;BME280;3044;43.232;27.972;2023-05-21T11:45:19;44925.31;;;-143.84;31.97
6032;BME280;3044;43.232;27.972;2023-05-21T11:47:48;44932.91;;;-143.84;31.97
6032;BME280;3044;43.232;27.972;2023-05-21T11:50:16;44927.19;;;-143.84;32.34
6032;BME280;3044;43.232;27.972;2023-05-21T11:52:44;44919.59;;;-143.84;32.82
6032;BME280;3044;43.232;27.972;2023-05-21T11:55:11;44953.88;;;-143.84;32.44
6032;BME280;3044;43.232;27.972;2023-05-21T11:57:41;44972.91;;;-143.84;33.73
6032;BME280;3044;43.232;27.972;2023-05-21T12:00:13;44963.38;;;-143.84;33.53
6032;BME280;3044;43.232;27.972;2023-05-21T12:02:45;44940.53;;;-143.84;34.39
6032;BME280;3044;43.232;27.972;2023-05-21T12:05:14;44946.25;;;-143.84;34.72
6032;BME280;3044;43.232;27.972;2023-05-21T12:07:41;44946.25;;;-143.84;35.33
6032;BME280;3044;43.232;27.972;2023-05-21T12:10:10;44948.16;;;-143.84;35.53
6032;BME280;3044;43.232;27.972;2023-05-21T12:12:37;44957.66;;;-143.84;36.15
6032;BME280;3044;43.232;27.972;2023-05-21T12:15:05;44951.97;;;-143.84;36.87
6032;BME280;3044;43.232;27.972;2023-05-21T12:17:33;44988.13;;;-143.84;37.20
6032;BME280;3044;43.232;27.972;2023-05-21T12:20:00;44986.22;;;-143.84;37.52
6032;BME280;3044;43.232;27.972;2023-05-21T12:22:33;44974.81;;;-143.84;37.86
6032;BME280;3044;43.232;27.972;2023-05-21T12:25:00;44969.09;;;-143.84;38.17
6032;BME280;3044;43.232;27.972;2023-05-21T12:27:27;44971.00;;;-143.84;38.97
6032;BME280;3044;43.232;27.972;2023-05-21T12:29:55;44971.00;;;-143.84;39.25
6032;BME280;3044;43.232;27.972;2023-05-21T12:32:26;44978.63;;;-143.84;38.82
6032;BME280;3044;43.232;27.972;2023-05-21T12:34:55;44982.41;;;-143.84;38.37
6032;BME280;3044;43.232;27.972;2023-05-21T12:37:23;44974.81;;;-143.84;38.75
6032;BME280;3044;43.232;27.972;2023-05-21T12:39:53;45001.47;;;-143.84;38.70
6032;BME280;3044;43.232;27.972;2023-05-21T12:42:25;44978.63;;;-143.84;39.15
6032;BME280;3044;43.232;27.972;2023-05-21T12:44:53;44974.81;;;-143.84;38.83
6032;BME280;3044;43.232;27.972;2023-05-21T12:47:22;44969.09;;;-143.84;38.61
6032;BME280;3044;43.232;27.972;2023-05-21T12:49:53;44978.63;;;-143.84;39.18
6032;BME280;3044;43.232;27.972;2023-05-21T12:52:22;44984.31;;;-143.84;38.70
6032;BME280;3044;43.232;27.972;2023-05-21T12:54:52;44986.22;;;-143.84;39.86
6032;BME280;3044;43.232;27.972;2023-05-21T12:57:20;44984.31;;;-143.84;37.86
6032;BME280;3044;43.232;27.972;2023-05-21T12:59:49;44957.66;;;-143.84;37.28
6032;BME280;3044;43.232;27.972;2023-05-21T13:02:21;44963.38;;;-143.84;38.24